sensor_id;sensor_type;location;lat;lon;timestamp;temperature;humidity
18177;DHT22;9213;50.858;3.964;2023-04-24T00:01:23;14.00;59.00
18177;DHT22;9213;50.858;3.964;2023-04-24T00:03:50;13.90;59.10
18177;DHT22;9213;50.858;3.964;2023-04-24T00:06:17;13.90;59.00
18177;DHT22;9213;50.858;3.964;2023-04-24T00:08:44;13.90;59.10
18177;DHT22;9213;50.858;3.964;2023-04-24T00:11:11;13.90;59.00
18177;DHT22;9213;50.858;3.964;2023-04-24T00:13:39;13.90;59.10
18177;DHT22;9213;50.858;3.964;2023-04-24T00:16:06;13.90;59.10
18177;DHT22;9213;50.858;3.964;2023-04-24T00:18:33;13.90;59.20
18177;DHT22;9213;50.858;3.964;2023-04-24T00:21:00;13.80;59.20
18177;DHT22;9213;50.858;3.964;2023-04-24T00:23:28;13.80;59.30
18177;DHT22;9213;50.858;3.964;2023-04-24T00:25:55;13.80;59.40
18177;DHT22;9213;50.858;3.964;2023-04-24T00:28:22;13.80;59.50
18177;DHT22;9213;50.858;3.964;2023-04-24T00:30:50;13.80;59.60
18177;DHT22;9213;50.858;3.964;2023-04-24T00:33:17;13.80;59.70
18177;DHT22;9213;50.858;3.964;2023-04-24T00:35:44;13.80;59.60
18177;DHT22;9213;50.858;3.964;2023-04-24T00:38:11;13.70;59.70
18177;DHT22;9213;50.858;3.964;2023-04-24T00:40:38;13.80;59.70
18177;DHT22;9213;50.858;3.964;2023-04-24T00:43:05;13.80;59.80
18177;DHT22;9213;50.858;3.964;2023-04-24T00:45:32;13.70;59.90
18177;DHT22;9213;50.858;3.964;2023-04-24T00:48:00;13.70;60.00
18177;DHT22;9213;50.858;3.964;2023-04-24T00:50:28;13.70;60.10
18177;DHT22;9213;50.858;3.964;2023-04-24T00:52:56;13.70;60.20
18177;DHT22;9213;50.858;3.964;2023-04-24T00:55:23;13.70;60.20
18177;DHT22;9213;50.858;3.964;2023-04-24T00:57:50;13.70;60.30
18177;DHT22;9213;50.858;3.964;2023-04-24T01:00:17;13.70;60.40
18177;DHT22;9213;50.858;3.964;2023-04-24T01:02:45;13.70;60.50
18177;DHT22;9213;50.858;3.964;2023-04-24T01:05:14;13.70;60.50
18177;DHT22;9213;50.858;3.964;2023-04-24T01:07:45;13.70;60.50
18177;DHT22;9213;50.858;3.964;2023-04-24T01:10:14;13.70;60.50
18177;DHT22;9213;50.858;3.964;2023-04-24T01:12:42;13.60;60.40
18177;DHT22;9213;50.858;3.964;2023-04-24T01:15:10;13.60;60.40
18177;DHT22;9213;50.858;3.964;2023-04-24T01:17:37;13.60;60.50
18177;DHT22;9213;50.858;3.964;2023-04-24T01:20:05;13.60;60.40
18177;DHT22;9213;50.858;3.964;2023-04-24T01:22:34;13.50;60.40
18177;DHT22;9213;50.858;3.964;2023-04-24T01:25:02;13.50;60.40
18177;DHT22;9213;50.858;3.964;2023-04-24T01:27:30;13.50;60.40
18177;DHT22;9213;50.858;3.964;2023-04-24T01:29:57;13.50;61.10
18177;DHT22;9213;50.858;3.964;2023-04-24T01:32:25;13.40;60.30
18177;DHT22;9213;50.858;3.964;2023-04-24T01:34:52;13.40;60.20
18177;DHT22;9213;50.858;3.964;2023-04-24T01:37:19;13.40;60.20
18177;DHT22;9213;50.858;3.964;2023-04-24T01:39:47;13.40;60.30
18177;DHT22;9213;50.858;3.964;2023-04-24T01:42:14;13.40;60.40
18177;DHT22;9213;50.858;3.964;2023-04-24T01:44:41;13.40;60.50
18177;DHT22;9213;50.858;3.964;2023-04-24T01:47:08;13.40;60.60
18177;DHT22;9213;50.858;3.964;2023-04-24T01:49:37;13.40;60.70
18177;DHT22;9213;50.858;3.964;2023-04-24T01:52:04;13.40;60.80
18177;DHT22;9213;50.858;3.964;2023-04-24T01:54:31;13.30;60.80
18177;DHT22;9213;50.858;3.964;2023-04-24T01:57:00;13.40;60.70
18177;DHT22;9213;50.858;3.964;2023-04-24T01:59:28;13.40;60.70
18177;DHT22;9213;50.858;3.964;2023-04-24T02:01:55;13.40;60.60
18177;DHT22;9213;50.858;3.964;2023-04-24T02:04:22;13.30;60.70
18177;DHT22;9213;50.858;3.964;2023-04-24T02:06:49;13.40;60.60
18177;DHT22;9213;50.858;3.964;2023-04-24T02:09:16;13.40;60.60
18177;DHT22;9213;50.858;3.964;2023-04-24T02:11:43;13.40;60.60
18177;DHT22;9213;50.858;3.964;2023-04-24T02:14:11;13.30;60.70
18177;DHT22;9213;50.858;3.964;2023-04-24T02:16:38;13.40;60.70
18177;DHT22;9213;50.858;3.964;2023-04-24T02:19:05;13.40;60.70
18177;DHT22;9213;50.858;3.964;2023-04-24T02:21:32;13.40;60.70
18177;DHT22;9213;50.858;3.964;2023-04-24T02:23:59;13.30;60.80
18177;DHT22;9213;50.858;3.964;2023-04-24T02:26:26;13.30;60.80
18177;DHT22;9213;50.858;3.964;2023-04-24T02:28:53;13.30;60.90
18177;DHT22;9213;50.858;3.964;2023-04-24T02:31:21;13.30;60.90
18177;DHT22;9213;50.858;3.964;2023-04-24T02:33:48;13.30;61.00
18177;DHT22;9213;50.858;3.964;2023-04-24T02:36:15;13.30;61.10
18177;DHT22;9213;50.858;3.964;2023-04-24T02:38:42;13.30;61.00
18177;DHT22;9213;50.858;3.964;2023-04-24T02:41:09;13.20;61.00
18177;DHT22;9213;50.858;3.964;2023-04-24T02:43:36;13.20;61.00
18177;DHT22;9213;50.858;3.964;2023-04-24T02:46:03;13.20;61.10
18177;DHT22;9213;50.858;3.964;2023-04-24T02:48:32;13.20;61.10
18177;DHT22;9213;50.858;3.964;2023-04-24T02:50:59;13.20;61.30
18177;DHT22;9213;50.858;3.964;2023-04-24T02:53:26;13.20;61.30
18177;DHT22;9213;50.858;3.964;2023-04-24T02:55:55;13.20;61.30
18177;DHT22;9213;50.858;3.964;2023-04-24T02:58:22;13.20;61.50
18177;DHT22;9213;50.858;3.964;2023-04-24T03:00:50;13.10;61.50
18177;DHT22;9213;50.858;3.964;2023-04-24T03:03:19;13.10;61.70
18177;DHT22;9213;50.858;3.964;2023-04-24T03:05:47;13.10;61.80
18177;DHT22;9213;50.858;3.964;2023-04-24T03:08:14;13.10;61.90
18177;DHT22;9213;50.858;3.964;2023-04-24T03:10:41;13.10;62.00
18177;DHT22;9213;50.858;3.964;2023-04-24T03:13:08;13.10;62.10
18177;DHT22;9213;50.858;3.964;2023-04-24T03:15:35;13.10;62.20
18177;DHT22;9213;50.858;3.964;2023-04-24T03:18:02;13.10;62.20
18177;DHT22;9213;50.858;3.964;2023-04-24T03:20:29;13.10;62.30
18177;DHT22;9213;50.858;3.964;2023-04-24T03:22:57;13.10;62.30
18177;DHT22;9213;50.858;3.964;2023-04-24T03:25:25;13.10;62.50
18177;DHT22;9213;50.858;3.964;2023-04-24T03:27:52;13.00;63.20
18177;DHT22;9213;50.858;3.964;2023-04-24T03:30:20;13.00;62.40
18177;DHT22;9213;50.858;3.964;2023-04-24T03:32:47;13.00;62.60
18177;DHT22;9213;50.858;3.964;2023-04-24T03:35:14;13.00;62.70
18177;DHT22;9213;50.858;3.964;2023-04-24T03:37:41;13.00;62.80
18177;DHT22;9213;50.858;3.964;2023-04-24T03:40:10;13.00;62.90
18177;DHT22;9213;50.858;3.964;2023-04-24T03:42:37;13.00;63.10
18177;DHT22;9213;50.858;3.964;2023-04-24T03:45:05;13.00;63.10
18177;DHT22;9213;50.858;3.964;2023-04-24T03:47:32;13.00;63.20
18177;DHT22;9213;50.858;3.964;2023-04-24T03:49:59;13.00;63.10
18177;DHT22;9213;50.858;3.964;2023-04-24T03:52:26;13.00;63.10
18177;DHT22;9213;50.858;3.964;2023-04-24T03:54:53;13.00;63.20
18177;DHT22;9213;50.858;3.964;2023-04-24T03:57:22;13.00;63.10
18177;DHT22;9213;50.858;3.964;2023-04-24T03:59:49;13.00;63.20
18177;DHT22;9213;50.858;3.964;2023-04-24T04:02:16;13.00;63.10
18177;DHT22;9213;50.858;3.964;2023-04-24T04:04:43;13.00;63.20
18177;DHT22;9213;50.858;3.964;2023-04-24T04:07:10;13.00;63.20
18177;DHT22;9213;50.858;3.964;2023-04-24T04:09:38;13.00;63.20
18177;DHT22;9213;50.858;3.964;2023-04-24T04:12:05;13.00;63.20
18177;DHT22;9213;50.858;3.964;2023-04-24T04:14:33;13.00;63.20
18177;DHT22;9213;50.858;3.964;2023-04-24T04:17:00;13.00;63.10
18177;DHT22;9213;50.858;3.964;2023-04-24T04:19:27;12.90;63.10
18177;DHT22;9213;50.858;3.964;2023-04-24T04:21:54;12.90;63.00
18177;DHT22;9213;50.858;3.964;2023-04-24T04:24:21;12.90;63.00
18177;DHT22;9213;50.858;3.964;2023-04-24T04:26:49;12.90;62.90
18177;DHT22;9213;50.858;3.964;2023-04-24T04:29:17;12.90;62.90
18177;DHT22;9213;50.858;3.964;2023-04-24T04:31:45;12.90;62.90
18177;DHT22;9213;50.858;3.964;2023-04-24T04:34:12;12.90;62.80
18177;DHT22;9213;50.858;3.964;2023-04-24T04:36:40;12.90;62.80
18177;DHT22;9213;50.858;3.964;2023-04-24T04:39:07;12.90;62.80
18177;DHT22;9213;50.858;3.964;2023-04-24T04:41:34;12.90;62.70
18177;DHT22;9213;50.858;3.964;2023-04-24T04:44:01;12.90;62.60
18177;DHT22;9213;50.858;3.964;2023-04-24T04:46:30;12.90;62.60
18177;DHT22;9213;50.858;3.964;2023-04-24T04:49:00;12.90;62.60
18177;DHT22;9213;50.858;3.964;2023-04-24T04:51:28;12.90;62.60
18177;DHT22;9213;50.858;3.964;2023-04-24T04:53:55;12.90;62.60
18177;DHT22;9213;50.858;3.964;2023-04-24T04:56:22;12.90;62.70
18177;DHT22;9213;50.858;3.964;2023-04-24T04:58:49;12.90;62.60
18177;DHT22;9213;50.858;3.964;2023-04-24T05:01:16;12.80;62.50
18177;DHT22;9213;50.858;3.964;2023-04-24T05:03:44;12.80;62.50
18177;DHT22;9213;50.858;3.964;2023-04-24T05:06:12;12.80;62.50
18177;DHT22;9213;50.858;3.964;2023-04-24T05:08:39;12.80;62.40
18177;DHT22;9213;50.858;3.964;2023-04-24T05:11:06;12.80;62.40
18177;DHT22;9213;50.858;3.964;2023-04-24T05:13:33;12.80;62.30
18177;DHT22;9213;50.858;3.964;2023-04-24T05:16:00;12.80;62.20
18177;DHT22;9213;50.858;3.964;2023-04-24T05:18:27;12.80;62.20
18177;DHT22;9213;50.858;3.964;2023-04-24T05:20:54;12.80;62.10
18177;DHT22;9213;50.858;3.964;2023-04-24T05:23:23;12.80;62.10
18177;DHT22;9213;50.858;3.964;2023-04-24T05:25:49;12.80;62.00
18177;DHT22;9213;50.858;3.964;2023-04-24T05:28:17;12.80;62.00
18177;DHT22;9213;50.858;3.964;2023-04-24T05:30:43;12.70;62.00
18177;DHT22;9213;50.858;3.964;2023-04-24T05:33:11;12.80;61.90
18177;DHT22;9213;50.858;3.964;2023-04-24T05:35:40;12.80;61.90
18177;DHT22;9213;50.858;3.964;2023-04-24T05:38:11;12.80;61.90
18177;DHT22;9213;50.858;3.964;2023-04-24T05:40:39;12.70;61.90
18177;DHT22;9213;50.858;3.964;2023-04-24T05:43:06;12.80;61.80
18177;DHT22;9213;50.858;3.964;2023-04-24T05:45:33;12.70;61.80
18177;DHT22;9213;50.858;3.964;2023-04-24T05:48:01;12.70;61.70
18177;DHT22;9213;50.858;3.964;2023-04-24T05:50:28;12.70;61.70
18177;DHT22;9213;50.858;3.964;2023-04-24T05:52:55;12.70;61.80
18177;DHT22;9213;50.858;3.964;2023-04-24T05:55:23;12.70;61.70
18177;DHT22;9213;50.858;3.964;2023-04-24T05:57:52;12.70;61.80
18177;DHT22;9213;50.858;3.964;2023-04-24T06:00:19;12.70;61.80
18177;DHT22;9213;50.858;3.964;2023-04-24T06:02:46;12.70;62.00
18177;DHT22;9213;50.858;3.964;2023-04-24T06:05:13;12.70;62.00
18177;DHT22;9213;50.858;3.964;2023-04-24T06:07:40;12.70;62.00
18177;DHT22;9213;50.858;3.964;2023-04-24T06:10:08;12.70;61.90
18177;DHT22;9213;50.858;3.964;2023-04-24T06:12:35;12.70;62.00
18177;DHT22;9213;50.858;3.964;2023-04-24T06:15:04;12.80;61.90
18177;DHT22;9213;50.858;3.964;2023-04-24T06:17:31;12.80;61.90
18177;DHT22;9213;50.858;3.964;2023-04-24T06:19:58;12.80;61.80
18177;DHT22;9213;50.858;3.964;2023-04-24T06:22:25;12.80;61.80
18177;DHT22;9213;50.858;3.964;2023-04-24T06:24:52;12.80;61.90
18177;DHT22;9213;50.858;3.964;2023-04-24T06:27:19;12.90;61.90
18177;DHT22;9213;50.858;3.964;2023-04-24T06:29:46;12.90;61.80
18177;DHT22;9213;50.858;3.964;2023-04-24T06:32:19;12.90;61.80
18177;DHT22;9213;50.858;3.964;2023-04-24T06:34:46;13.00;61.70
18177;DHT22;9213;50.858;3.964;2023-04-24T06:37:14;13.00;61.60
18177;DHT22;9213;50.858;3.964;2023-04-24T06:39:41;13.10;61.60
18177;DHT22;9213;50.858;3.964;2023-04-24T06:42:08;13.10;61.60
18177;DHT22;9213;50.858;3.964;2023-04-24T06:44:35;13.20;61.40
18177;DHT22;9213;50.858;3.964;2023-04-24T06:47:06;13.20;61.30
18177;DHT22;9213;50.858;3.964;2023-04-24T06:49:35;13.30;61.10
18177;DHT22;9213;50.858;3.964;2023-04-24T06:52:02;13.40;60.80
18177;DHT22;9213;50.858;3.964;2023-04-24T06:54:29;13.50;60.60
18177;DHT22;9213;50.858;3.964;2023-04-24T06:56:56;13.60;60.40
18177;DHT22;9213;50.858;3.964;2023-04-24T06:59:23;13.70;60.40
18177;DHT22;9213;50.858;3.964;2023-04-24T07:01:50;13.70;60.10
18177;DHT22;9213;50.858;3.964;2023-04-24T07:04:17;13.80;59.90
18177;DHT22;9213;50.858;3.964;2023-04-24T07:06:46;13.80;59.60
18177;DHT22;9213;50.858;3.964;2023-04-24T07:09:14;13.80;59.60
18177;DHT22;9213;50.858;3.964;2023-04-24T07:11:44;13.80;59.50
18177;DHT22;9213;50.858;3.964;2023-04-24T07:14:11;13.70;59.60
18177;DHT22;9213;50.858;3.964;2023-04-24T07:16:37;13.70;59.60
18177;DHT22;9213;50.858;3.964;2023-04-24T07:19:04;13.70;59.70
18177;DHT22;9213;50.858;3.964;2023-04-24T07:21:31;13.80;60.00
18177;DHT22;9213;50.858;3.964;2023-04-24T07:24:00;14.00;61.10
18177;DHT22;9213;50.858;3.964;2023-04-24T07:26:27;14.40;61.00
18177;DHT22;9213;50.858;3.964;2023-04-24T07:28:54;14.90;59.30
18177;DHT22;9213;50.858;3.964;2023-04-24T07:31:21;15.20;57.40
18177;DHT22;9213;50.858;3.964;2023-04-24T07:33:48;15.30;56.70
18177;DHT22;9213;50.858;3.964;2023-04-24T07:36:16;15.30;55.10
18177;DHT22;9213;50.858;3.964;2023-04-24T07:38:44;15.20;55.00
18177;DHT22;9213;50.858;3.964;2023-04-24T07:41:13;15.00;55.00
18177;DHT22;9213;50.858;3.964;2023-04-24T07:43:40;14.90;55.50
18177;DHT22;9213;50.858;3.964;2023-04-24T07:46:07;15.00;56.10
18177;DHT22;9213;50.858;3.964;2023-04-24T07:48:35;15.00;56.00
18177;DHT22;9213;50.858;3.964;2023-04-24T07:51:02;15.20;55.60
18177;DHT22;9213;50.858;3.964;2023-04-24T07:53:29;15.20;54.70
18177;DHT22;9213;50.858;3.964;2023-04-24T07:55:56;15.30;54.40
18177;DHT22;9213;50.858;3.964;2023-04-24T07:58:24;15.30;54.70
18177;DHT22;9213;50.858;3.964;2023-04-24T08:00:51;15.40;54.70
18177;DHT22;9213;50.858;3.964;2023-04-24T08:03:18;15.50;54.30
18177;DHT22;9213;50.858;3.964;2023-04-24T08:05:45;15.60;53.70
18177;DHT22;9213;50.858;3.964;2023-04-24T08:08:12;15.60;53.30
18177;DHT22;9213;50.858;3.964;2023-04-24T08:10:40;15.60;53.10
18177;DHT22;9213;50.858;3.964;2023-04-24T08:13:07;15.60;53.70
18177;DHT22;9213;50.858;3.964;2023-04-24T08:15:35;15.90;54.30
18177;DHT22;9213;50.858;3.964;2023-04-24T08:18:02;16.60;54.40
18177;DHT22;9213;50.858;3.964;2023-04-24T08:20:29;17.70;52.60
18177;DHT22;9213;50.858;3.964;2023-04-24T08:22:56;18.90;49.80
18177;DHT22;9213;50.858;3.964;2023-04-24T08:25:23;19.90;46.10
18177;DHT22;9213;50.858;3.964;2023-04-24T08:27:50;20.80;43.20
18177;DHT22;9213;50.858;3.964;2023-04-24T08:30:17;21.40;41.50
18177;DHT22;9213;50.858;3.964;2023-04-24T08:32:46;22.00;39.30
18177;DHT22;9213;50.858;3.964;2023-04-24T08:35:13;22.20;36.90
18177;DHT22;9213;50.858;3.964;2023-04-24T08:37:40;22.00;36.30
18177;DHT22;9213;50.858;3.964;2023-04-24T08:40:12;21.50;36.40
18177;DHT22;9213;50.858;3.964;2023-04-24T08:42:41;21.20;37.00
18177;DHT22;9213;50.858;3.964;2023-04-24T08:45:10;20.80;37.50
18177;DHT22;9213;50.858;3.964;2023-04-24T08:47:38;20.40;37.70
18177;DHT22;9213;50.858;3.964;2023-04-24T08:50:09;19.90;38.70
18177;DHT22;9213;50.858;3.964;2023-04-24T08:52:36;19.40;39.00
18177;DHT22;9213;50.858;3.964;2023-04-24T08:55:03;19.00;39.80
18177;DHT22;9213;50.858;3.964;2023-04-24T08:57:31;18.60;40.70
18177;DHT22;9213;50.858;3.964;2023-04-24T08:59:59;18.30;41.40
18177;DHT22;9213;50.858;3.964;2023-04-24T09:02:27;18.00;42.50
18177;DHT22;9213;50.858;3.964;2023-04-24T09:04:56;17.90;43.60
18177;DHT22;9213;50.858;3.964;2023-04-24T09:07:24;18.10;41.80
18177;DHT22;9213;50.858;3.964;2023-04-24T09:09:52;18.10;42.70
18177;DHT22;9213;50.858;3.964;2023-04-24T09:12:20;18.50;42.60
18177;DHT22;9213;50.858;3.964;2023-04-24T09:14:48;18.90;41.10
18177;DHT22;9213;50.858;3.964;2023-04-24T09:17:16;19.20;39.80
18177;DHT22;9213;50.858;3.964;2023-04-24T09:19:43;19.30;39.50
18177;DHT22;9213;50.858;3.964;2023-04-24T09:22:10;19.20;39.20
18177;DHT22;9213;50.858;3.964;2023-04-24T09:24:39;19.00;39.00
18177;DHT22;9213;50.858;3.964;2023-04-24T09:27:06;18.80;39.40
18177;DHT22;9213;50.858;3.964;2023-04-24T09:29:33;18.60;39.90
18177;DHT22;9213;50.858;3.964;2023-04-24T09:32:18;18.50;40.40
18177;DHT22;9213;50.858;3.964;2023-04-24T09:34:47;18.50;41.20
18177;DHT22;9213;50.858;3.964;2023-04-24T09:37:27;18.50;40.60
18177;DHT22;9213;50.858;3.964;2023-04-24T09:40:12;18.40;40.10
18177;DHT22;9213;50.858;3.964;2023-04-24T09:42:39;18.20;40.10
18177;DHT22;9213;50.858;3.964;2023-04-24T09:45:09;17.90;40.60
18177;DHT22;9213;50.858;3.964;2023-04-24T09:47:37;17.80;41.30
18177;DHT22;9213;50.858;3.964;2023-04-24T09:50:14;17.70;42.10
18177;DHT22;9213;50.858;3.964;2023-04-24T09:52:43;17.70;43.10
18177;DHT22;9213;50.858;3.964;2023-04-24T09:55:18;17.80;42.80
18177;DHT22;9213;50.858;3.964;2023-04-24T09:57:49;18.00;42.40
18177;DHT22;9213;50.858;3.964;2023-04-24T10:00:22;18.20;41.20
18177;DHT22;9213;50.858;3.964;2023-04-24T10:02:54;18.20;40.80
18177;DHT22;9213;50.858;3.964;2023-04-24T10:05:24;18.20;41.40
18177;DHT22;9213;50.858;3.964;2023-04-24T10:07:51;18.30;41.00
18177;DHT22;9213;50.858;3.964;2023-04-24T10:10:20;18.50;41.20
18177;DHT22;9213;50.858;3.964;2023-04-24T10:12:47;18.70;40.10
18177;DHT22;9213;50.858;3.964;2023-04-24T10:15:15;18.90;39.90
18177;DHT22;9213;50.858;3.964;2023-04-24T10:17:47;19.00;39.00
18177;DHT22;9213;50.858;3.964;2023-04-24T10:20:18;19.10;39.30
18177;DHT22;9213;50.858;3.964;2023-04-24T10:22:48;19.10;39.10
18177;DHT22;9213;50.858;3.964;2023-04-24T10:25:19;19.10;38.60
18177;DHT22;9213;50.858;3.964;2023-04-24T10:27:48;19.10;38.50
18177;DHT22;9213;50.858;3.964;2023-04-24T10:30:16;19.10;38.80
18177;DHT22;9213;50.858;3.964;2023-04-24T10:32:43;19.00;38.70
18177;DHT22;9213;50.858;3.964;2023-04-24T10:35:12;19.00;39.30
18177;DHT22;9213;50.858;3.964;2023-04-24T10:37:42;19.10;38.70
18177;DHT22;9213;50.858;3.964;2023-04-24T10:40:11;19.20;38.40
18177;DHT22;9213;50.858;3.964;2023-04-24T10:42:41;19.20;37.80
18177;DHT22;9213;50.858;3.964;2023-04-24T10:45:16;19.20;37.90
18177;DHT22;9213;50.858;3.964;2023-04-24T10:47:52;19.20;38.60
18177;DHT22;9213;50.858;3.964;2023-04-24T10:50:19;19.20;39.00
18177;DHT22;9213;50.858;3.964;2023-04-24T10:52:46;19.10;38.30
18177;DHT22;9213;50.858;3.964;2023-04-24T10:55:14;19.10;38.60
18177;DHT22;9213;50.858;3.964;2023-04-24T10:58:01;19.20;38.50
18177;DHT22;9213;50.858;3.964;2023-04-24T11:00:29;19.30;38.80
18177;DHT22;9213;50.858;3.964;2023-04-24T11:02:56;19.20;38.30
18177;DHT22;9213;50.858;3.964;2023-04-24T11:05:50;19.20;37.90
18177;DHT22;9213;50.858;3.964;2023-04-24T11:08:26;19.20;38.30
18177;DHT22;9213;50.858;3.964;2023-04-24T11:10:58;19.10;38.40
18177;DHT22;9213;50.858;3.964;2023-04-24T11:14:00;19.00;38.00
18177;DHT22;9213;50.858;3.964;2023-04-24T11:16:19;18.90;38.50
18177;DHT22;9213;50.858;3.964;2023-04-24T11:18:51;18.90;38.40
18177;DHT22;9213;50.858;3.964;2023-04-24T11:21:20;18.90;39.10
18177;DHT22;9213;50.858;3.964;2023-04-24T11:23:48;18.90;39.10
18177;DHT22;9213;50.858;3.964;2023-04-24T11:26:18;19.20;38.50
18177;DHT22;9213;50.858;3.964;2023-04-24T11:28:48;19.40;38.40
18177;DHT22;9213;50.858;3.964;2023-04-24T11:31:33;19.60;38.10
18177;DHT22;9213;50.858;3.964;2023-04-24T11:34:06;19.90;38.90
18177;DHT22;9213;50.858;3.964;2023-04-24T11:36:34;20.10;38.20
18177;DHT22;9213;50.858;3.964;2023-04-24T11:39:01;20.20;36.80
18177;DHT22;9213;50.858;3.964;2023-04-24T11:41:29;20.30;36.80
18177;DHT22;9213;50.858;3.964;2023-04-24T11:43:57;20.30;37.00
18177;DHT22;9213;50.858;3.964;2023-04-24T11:46:28;20.40;37.10
18177;DHT22;9213;50.858;3.964;2023-04-24T11:48:55;20.60;37.20
18177;DHT22;9213;50.858;3.964;2023-04-24T11:51:23;20.80;36.40
18177;DHT22;9213;50.858;3.964;2023-04-24T11:53:51;20.90;35.90
18177;DHT22;9213;50.858;3.964;2023-04-24T11:56:18;20.80;35.50
18177;DHT22;9213;50.858;3.964;2023-04-24T11:58:46;20.80;35.10
18177;DHT22;9213;50.858;3.964;2023-04-24T12:01:14;20.60;36.00
18177;DHT22;9213;50.858;3.964;2023-04-24T12:03:41;20.60;36.70
18177;DHT22;9213;50.858;3.964;2023-04-24T12:06:12;20.70;36.40
18177;DHT22;9213;50.858;3.964;2023-04-24T12:08:39;20.90;36.50
18177;DHT22;9213;50.858;3.964;2023-04-24T12:11:07;21.00;36.30
18177;DHT22;9213;50.858;3.964;2023-04-24T12:13:34;21.10;36.10
18177;DHT22;9213;50.858;3.964;2023-04-24T12:16:03;21.20;35.30
18177;DHT22;9213;50.858;3.964;2023-04-24T12:18:31;21.20;35.10
18177;DHT22;9213;50.858;3.964;2023-04-24T12:21:18;21.20;34.50
18177;DHT22;9213;50.858;3.964;2023-04-24T12:23:45;21.30;35.10
18177;DHT22;9213;50.858;3.964;2023-04-24T12:26:12;21.30;35.60
18177;DHT22;9213;50.858;3.964;2023-04-24T12:28:42;21.40;35.20
18177;DHT22;9213;50.858;3.964;2023-04-24T12:31:09;21.60;35.40
18177;DHT22;9213;50.858;3.964;2023-04-24T12:33:37;21.80;35.00
18177;DHT22;9213;50.858;3.964;2023-04-24T12:36:05;21.90;34.20
18177;DHT22;9213;50.858;3.964;2023-04-24T12:38:32;22.10;34.30
18177;DHT22;9213;50.858;3.964;2023-04-24T12:41:06;22.10;33.80
18177;DHT22;9213;50.858;3.964;2023-04-24T12:43:34;22.10;33.50
18177;DHT22;9213;50.858;3.964;2023-04-24T12:46:01;22.00;33.60
18177;DHT22;9213;50.858;3.964;2023-04-24T12:48:29;21.90;33.40
18177;DHT22;9213;50.858;3.964;2023-04-24T12:50:58;21.80;33.30
18177;DHT22;9213;50.858;3.964;2023-04-24T12:53:27;21.70;33.60
18177;DHT22;9213;50.858;3.964;2023-04-24T12:55:56;21.60;33.70
18177;DHT22;9213;50.858;3.964;2023-04-24T12:58:23;21.60;34.00
18177;DHT22;9213;50.858;3.964;2023-04-24T13:00:50;21.60;34.10
18177;DHT22;9213;50.858;3.964;2023-04-24T13:03:18;21.60;33.50
18177;DHT22;9213;50.858;3.964;2023-04-24T13:05:45;21.60;33.40
18177;DHT22;9213;50.858;3.964;2023-04-24T13:08:13;21.70;33.80
18177;DHT22;9213;50.858;3.964;2023-04-24T13:10:40;21.80;33.90
18177;DHT22;9213;50.858;3.964;2023-04-24T13:13:07;22.00;33.20
18177;DHT22;9213;50.858;3.964;2023-04-24T13:15:34;22.10;32.70
18177;DHT22;9213;50.858;3.964;2023-04-24T13:18:01;22.10;32.30
18177;DHT22;9213;50.858;3.964;2023-04-24T13:20:28;22.10;31.90
18177;DHT22;9213;50.858;3.964;2023-04-24T13:22:55;22.00;31.80
18177;DHT22;9213;50.858;3.964;2023-04-24T13:25:23;22.00;32.20
18177;DHT22;9213;50.858;3.964;2023-04-24T13:27:50;22.10;32.20
18177;DHT22;9213;50.858;3.964;2023-04-24T13:30:17;22.20;32.30
18177;DHT22;9213;50.858;3.964;2023-04-24T13:32:44;22.30;31.90
18177;DHT22;9213;50.858;3.964;2023-04-24T13:35:11;22.40;31.10
18177;DHT22;9213;50.858;3.964;2023-04-24T13:37:38;22.40;30.70
18177;DHT22;9213;50.858;3.964;2023-04-24T13:40:06;22.50;30.50
18177;DHT22;9213;50.858;3.964;2023-04-24T13:42:34;22.50;30.80
18177;DHT22;9213;50.858;3.964;2023-04-24T13:45:02;22.60;30.90
18177;DHT22;9213;50.858;3.964;2023-04-24T13:47:30;22.60;31.30
18177;DHT22;9213;50.858;3.964;2023-04-24T13:49:56;22.70;30.90
18177;DHT22;9213;50.858;3.964;2023-04-24T13:52:23;22.70;30.50
18177;DHT22;9213;50.858;3.964;2023-04-24T13:54:50;22.70;30.00
18177;DHT22;9213;50.858;3.964;2023-04-24T13:57:17;22.50;30.20
18177;DHT22;9213;50.858;3.964;2023-04-24T13:59:45;22.40;30.40
18177;DHT22;9213;50.858;3.964;2023-04-24T14:02:12;22.20;30.50
18177;DHT22;9213;50.858;3.964;2023-04-24T14:04:39;22.10;31.00
18177;DHT22;9213;50.858;3.964;2023-04-24T14:07:06;21.90;31.30
18177;DHT22;9213;50.858;3.964;2023-04-24T14:09:33;21.90;30.80
18177;DHT22;9213;50.858;3.964;2023-04-24T14:12:00;21.90;30.80
18177;DHT22;9213;50.858;3.964;2023-04-24T14:14:29;22.00;30.40
18177;DHT22;9213;50.858;3.964;2023-04-24T14:16:57;22.00;30.20
18177;DHT22;9213;50.858;3.964;2023-04-24T14:19:24;22.10;30.10
18177;DHT22;9213;50.858;3.964;2023-04-24T14:21:51;22.00;30.40
18177;DHT22;9213;50.858;3.964;2023-04-24T14:24:19;22.00;30.20
18177;DHT22;9213;50.858;3.964;2023-04-24T14:26:46;22.00;30.20
18177;DHT22;9213;50.858;3.964;2023-04-24T14:29:13;22.00;30.00
18177;DHT22;9213;50.858;3.964;2023-04-24T14:31:40;21.90;30.00
18177;DHT22;9213;50.858;3.964;2023-04-24T14:34:08;21.90;30.00
18177;DHT22;9213;50.858;3.964;2023-04-24T14:36:35;21.90;30.00
18177;DHT22;9213;50.858;3.964;2023-04-24T14:39:02;21.90;30.00
18177;DHT22;9213;50.858;3.964;2023-04-24T14:41:32;21.80;29.90
18177;DHT22;9213;50.858;3.964;2023-04-24T14:44:01;21.80;29.60
18177;DHT22;9213;50.858;3.964;2023-04-24T14:46:28;21.60;29.90
18177;DHT22;9213;50.858;3.964;2023-04-24T14:48:56;21.50;29.90
18177;DHT22;9213;50.858;3.964;2023-04-24T14:51:24;21.40;30.00
18177;DHT22;9213;50.858;3.964;2023-04-24T14:53:52;21.30;30.20
18177;DHT22;9213;50.858;3.964;2023-04-24T14:56:19;21.20;30.40
18177;DHT22;9213;50.858;3.964;2023-04-24T14:58:46;21.20;30.60
18177;DHT22;9213;50.858;3.964;2023-04-24T15:01:13;21.20;30.40
18177;DHT22;9213;50.858;3.964;2023-04-24T15:03:40;21.30;30.40
18177;DHT22;9213;50.858;3.964;2023-04-24T15:06:07;21.30;30.00
18177;DHT22;9213;50.858;3.964;2023-04-24T15:08:35;21.40;29.90
18177;DHT22;9213;50.858;3.964;2023-04-24T15:11:02;21.40;30.30
18177;DHT22;9213;50.858;3.964;2023-04-24T15:13:29;21.40;30.30
18177;DHT22;9213;50.858;3.964;2023-04-24T15:15:56;21.40;30.20
18177;DHT22;9213;50.858;3.964;2023-04-24T15:18:23;21.40;30.40
18177;DHT22;9213;50.858;3.964;2023-04-24T15:20:50;21.30;30.40
18177;DHT22;9213;50.858;3.964;2023-04-24T15:23:17;21.30;30.40
18177;DHT22;9213;50.858;3.964;2023-04-24T15:25:45;21.30;30.50
18177;DHT22;9213;50.858;3.964;2023-04-24T15:28:12;21.20;30.80
18177;DHT22;9213;50.858;3.964;2023-04-24T15:30:39;21.20;30.30
18177;DHT22;9213;50.858;3.964;2023-04-24T15:33:06;21.10;30.50
18177;DHT22;9213;50.858;3.964;2023-04-24T15:35:33;21.00;30.20
18177;DHT22;9213;50.858;3.964;2023-04-24T15:38:01;20.90;30.40
18177;DHT22;9213;50.858;3.964;2023-04-24T15:40:29;20.80;30.50
18177;DHT22;9213;50.858;3.964;2023-04-24T15:42:57;20.70;30.80
18177;DHT22;9213;50.858;3.964;2023-04-24T15:45:24;20.50;31.50
18177;DHT22;9213;50.858;3.964;2023-04-24T15:47:51;20.40;31.90
18177;DHT22;9213;50.858;3.964;2023-04-24T15:50:18;20.20;31.40